Time;durP1;ratioP1;P1;durP2;ratioP2;P2;SDS_P1;SDS_P2;PMS_P1;PMS_P2;Temp;Humidity;BMP_temperature;BMP_pressure;BME280_temperature;BME280_humidity;BME280_pressure;Samples;Min_cycle;Max_cycle;Signal;HPM_P1;HPM_P2
2020/12/20 00:00:11;;;;;;;5.10;4.70;;;;;;;;;;5052696;28;20440;-51
2020/12/20 00:02:37;;;;;;;8.00;4.97;;;;;;;;;;5052579;28;20644;-52
2020/12/20 00:05:07;;;;;;;5.70;4.60;;;;;;;;;;5052833;28;20498;-52
2020/12/20 00:07:33;;;;;;;5.30;4.80;;;;;;;;;;5052681;28;20429;-52
2020/12/20 00:09:59;;;;;;;7.20;4.47;;;;;;;;;;5050841;28;20928;-52
2020/12/20 00:12:25;;;;;;;5.53;5.00;;;;;;;;;;5052427;28;20472;-52
2020/12/20 00:14:51;;;;;;;10.30;5.43;;;;;;;;;;5048200;28;20429;-52
2020/12/20 00:17:17;;;;;;;8.70;5.73;;;;;;;;;;5048461;28;20429;-52
2020/12/20 00:19:43;;;;;;;5.37;4.87;;;;;;;;;;5052192;28;20398;-52
2020/12/20 00:22:11;;;;;;;5.23;4.73;;;;;;;;;;5052528;28;20417;-52
2020/12/20 00:24:37;;;;;;;5.37;4.87;;;;;;;;;;5052314;28;20467;-52
2020/12/20 00:27:04;;;;;;;5.43;4.80;;;;;;;;;;5051909;28;20402;-52
2020/12/20 00:29:32;;;;;;;5.50;4.87;;;;;;;;;;5051852;28;20409;-52
2020/12/20 00:31:58;;;;;;;5.70;5.07;;;;;;;;;;5052255;28;20444;-53
2020/12/20 00:34:24;;;;;;;5.23;4.80;;;;;;;;;;5052225;28;20453;-52
2020/12/20 00:36:51;;;;;;;7.97;5.30;;;;;;;;;;5052374;28;20458;-52
2020/12/20 00:39:18;;;;;;;7.20;5.30;;;;;;;;;;5049818;28;20449;-52
2020/12/20 00:41:48;;;;;;;5.90;5.10;;;;;;;;;;5052308;28;20425;-52
2020/12/20 00:44:14;;;;;;;5.37;4.57;;;;;;;;;;5052389;28;20406;-52
2020/12/20 00:46:40;;;;;;;5.70;4.70;;;;;;;;;;5052065;28;20424;-52
2020/12/20 00:49:06;;;;;;;6.37;5.10;;;;;;;;;;5052029;28;20406;-52
2020/12/20 00:51:32;;;;;;;6.07;4.30;;;;;;;;;;5051719;28;20496;-52
2020/12/20 00:53:59;;;;;;;5.37;4.83;;;;;;;;;;5051884;28;20454;-52
2020/12/20 00:56:25;;;;;;;4.87;4.30;;;;;;;;;;5051775;28;20455;-52
2020/12/20 00:58:51;;;;;;;6.90;4.70;;;;;;;;;;5051789;28;20405;-52
2020/12/20 01:01:17;;;;;;;5.73;4.33;;;;;;;;;;5051311;28;20513;-52
2020/12/20 01:03:43;;;;;;;5.80;5.20;;;;;;;;;;5051779;28;20406;-52
2020/12/20 01:06:15;;;;;;;7.70;4.87;;;;;;;;;;5051590;28;20401;-52
2020/12/20 01:08:41;;;;;;;7.23;4.87;;;;;;;;;;5047374;28;20433;-51
2020/12/20 01:11:07;;;;;;;6.23;4.50;;;;;;;;;;5051137;28;20814;-52
2020/12/20 01:13:33;;;;;;;6.13;5.30;;;;;;;;;;5051561;28;20461;-52
2020/12/20 01:15:59;;;;;;;5.27;4.60;;;;;;;;;;5051451;28;20397;-52
2020/12/20 01:18:26;;;;;;;5.93;5.00;;;;;;;;;;5051272;28;20398;-51
2020/12/20 01:20:52;;;;;;;6.03;4.20;;;;;;;;;;5051174;28;20465;-52
2020/12/20 01:23:18;;;;;;;5.03;4.57;;;;;;;;;;5051150;28;20931;-52
2020/12/20 01:25:43;;;;;;;6.87;4.83;;;;;;;;;;5051009;28;20411;-52
2020/12/20 01:28:09;;;;;;;5.23;4.77;;;;;;;;;;5050910;28;20406;-52
2020/12/20 01:30:35;;;;;;;6.20;4.90;;;;;;;;;;5049017;28;20404;-52
2020/12/20 01:33:01;;;;;;;4.43;4.03;;;;;;;;;;5050708;28;20567;-52
2020/12/20 01:35:27;;;;;;;6.43;4.40;;;;;;;;;;5051132;28;20855;-52
2020/12/20 01:37:53;;;;;;;5.10;4.53;;;;;;;;;;5050928;28;20403;-52
2020/12/20 01:40:19;;;;;;;5.33;4.83;;;;;;;;;;5046922;28;20474;-52
2020/12/20 01:42:45;;;;;;;4.43;4.03;;;;;;;;;;5050882;28;20422;-52
2020/12/20 01:45:11;;;;;;;6.13;4.57;;;;;;;;;;5050983;28;20460;-52
2020/12/20 01:47:37;;;;;;;4.33;3.80;;;;;;;;;;5050929;28;20897;-52
2020/12/20 01:50:04;;;;;;;4.87;4.43;;;;;;;;;;5050535;28;20403;-52
2020/12/20 01:52:31;;;;;;;5.10;4.60;;;;;;;;;;5050739;28;20429;-52
2020/12/20 01:55:00;;;;;;;6.60;4.30;;;;;;;;;;5050759;28;20402;-52
2020/12/20 01:57:26;;;;;;;4.93;4.33;;;;;;;;;;5050817;28;20405;-52
2020/12/20 01:59:52;;;;;;;5.07;4.57;;;;;;;;;;5050581;28;20742;-52
2020/12/20 02:02:20;;;;;;;5.90;4.17;;;;;;;;;;5049478;28;20421;-52
2020/12/20 02:04:47;;;;;;;6.90;5.03;;;;;;;;;;5049803;28;20407;-52
2020/12/20 02:07:13;;;;;;;6.43;4.90;;;;;;;;;;5050632;28;20403;-52
2020/12/20 02:09:39;;;;;;;5.60;4.80;;;;;;;;;;5048732;28;20469;-52
2020/12/20 02:12:06;;;;;;;9.13;5.83;;;;;;;;;;5050708;28;20432;-52
2020/12/20 02:14:33;;;;;;;6.23;5.17;;;;;;;;;;5050328;28;20466;-52
2020/12/20 02:16:59;;;;;;;5.37;4.77;;;;;;;;;;5050650;28;20405;-52
2020/12/20 02:19:26;;;;;;;7.27;4.80;;;;;;;;;;5050236;28;20412;-52
2020/12/20 02:21:53;;;;;;;7.30;5.63;;;;;;;;;;5050440;28;20788;-52
2020/12/20 02:24:19;;;;;;;5.80;5.30;;;;;;;;;;5050662;28;20428;-52
2020/12/20 02:26:45;;;;;;;4.90;4.43;;;;;;;;;;5050426;28;20406;-52
2020/12/20 02:29:11;;;;;;;7.40;5.13;;;;;;;;;;5050273;28;20455;-53
2020/12/20 02:31:37;;;;;;;8.03;5.87;;;;;;;;;;5050131;28;20449;-52
2020/12/20 02:34:03;;;;;;;5.07;4.67;;;;;;;;;;5050868;28;20516;-51
2020/12/20 02:36:29;;;;;;;7.20;5.27;;;;;;;;;;5050441;28;20830;-50
2020/12/20 02:38:55;;;;;;;7.10;5.57;;;;;;;;;;5047482;28;20430;-52
2020/12/20 02:41:21;;;;;;;5.43;4.70;;;;;;;;;;5050080;28;20418;-51
2020/12/20 02:43:48;;;;;;;6.47;5.77;;;;;;;;;;5050391;28;20397;-50
2020/12/20 02:46:15;;;;;;;7.43;5.00;;;;;;;;;;5050248;28;20402;-50
2020/12/20 02:48:41;;;;;;;5.67;5.17;;;;;;;;;;5050243;28;20402;-51
2020/12/20 02:51:07;;;;;;;5.60;4.70;;;;;;;;;;5051348;28;20432;-51
2020/12/20 02:53:33;;;;;;;7.97;6.13;;;;;;;;;;5054223;28;20483;-53
2020/12/20 02:55:59;;;;;;;5.53;5.03;;;;;;;;;;5054366;28;20881;-52
2020/12/20 02:58:25;;;;;;;10.63;5.03;;;;;;;;;;5054149;28;20404;-51
2020/12/20 03:00:51;;;;;;;6.90;4.80;;;;;;;;;;5054064;28;20421;-52
2020/12/20 03:03:17;;;;;;;6.10;5.50;;;;;;;;;;5054182;28;20500;-53
2020/12/20 03:05:43;;;;;;;7.87;5.33;;;;;;;;;;5054439;28;20399;-52
2020/12/20 03:08:09;;;;;;;6.30;4.80;;;;;;;;;;5052683;28;20425;-52
2020/12/20 03:10:35;;;;;;;8.70;5.30;;;;;;;;;;5052689;28;20795;-52
2020/12/20 03:13:02;;;;;;;7.00;5.80;;;;;;;;;;5053767;28;20535;-52
2020/12/20 03:15:28;;;;;;;8.27;5.33;;;;;;;;;;5053887;28;20425;-53
2020/12/20 03:17:54;;;;;;;5.23;4.73;;;;;;;;;;5053710;28;20819;-52
2020/12/20 03:20:20;;;;;;;7.03;5.20;;;;;;;;;;5053640;28;20481;-52
2020/12/20 03:22:46;;;;;;;5.13;4.63;;;;;;;;;;5053455;28;20924;-52
2020/12/20 03:25:11;;;;;;;5.77;5.00;;;;;;;;;;5053588;28;20496;-51
2020/12/20 03:27:37;;;;;;;7.60;5.50;;;;;;;;;;5053494;28;20901;-54
2020/12/20 03:30:05;;;;;;;5.63;5.00;;;;;;;;;;5053132;28;20406;-51
2020/12/20 03:32:31;;;;;;;7.93;5.90;;;;;;;;;;5053314;28;20448;-52
2020/12/20 03:34:57;;;;;;;5.70;5.20;;;;;;;;;;5053349;28;20406;-53
2020/12/20 03:37:23;;;;;;;8.43;5.20;;;;;;;;;;5051066;28;20479;-51
2020/12/20 03:39:49;;;;;;;5.53;5.03;;;;;;;;;;5051271;28;20441;-50
2020/12/20 03:42:15;;;;;;;6.37;5.20;;;;;;;;;;5053207;28;20449;-52
2020/12/20 03:44:41;;;;;;;7.53;5.17;;;;;;;;;;5053155;28;20412;-54
2020/12/20 03:47:07;;;;;;;5.90;5.30;;;;;;;;;;5053112;28;20492;-52
2020/12/20 03:49:33;;;;;;;6.57;5.57;;;;;;;;;;5052748;28;20881;-52
2020/12/20 03:51:58;;;;;;;7.00;5.47;;;;;;;;;;5053035;28;20791;-53
2020/12/20 03:54:25;;;;;;;5.70;4.80;;;;;;;;;;5052881;28;20452;-51
2020/12/20 03:56:54;;;;;;;6.23;5.63;;;;;;;;;;5053001;28;20488;-52
2020/12/20 03:59:20;;;;;;;7.00;5.10;;;;;;;;;;5052444;28;20771;-51
2020/12/20 04:01:46;;;;;;;5.60;4.97;;;;;;;;;;5052522;28;20425;-51
2020/12/20 04:04:12;;;;;;;5.70;5.07;;;;;;;;;;5052176;28;20901;-51
2020/12/20 04:06:38;;;;;;;6.20;5.60;;;;;;;;;;5052694;28;20420;-51
2020/12/20 04:09:04;;;;;;;5.50;5.10;;;;;;;;;;5051247;28;20425;-51
2020/12/20 04:11:30;;;;;;;7.23;5.50;;;;;;;;;;5052329;28;20939;-50
2020/12/20 04:13:55;;;;;;;6.17;5.53;;;;;;;;;;5052604;28;20473;-51
2020/12/20 04:16:21;;;;;;;6.50;5.10;;;;;;;;;;5052480;28;20405;-51
2020/12/20 04:18:48;;;;;;;8.03;5.20;;;;;;;;;;5052535;28;20398;-52
2020/12/20 04:21:14;;;;;;;7.60;5.83;;;;;;;;;;5052155;28;20444;-51
2020/12/20 04:23:40;;;;;;;6.33;5.10;;;;;;;;;;5052478;28;20455;-50
2020/12/20 04:26:06;;;;;;;6.10;5.50;;;;;;;;;;5052281;28;20429;-51
2020/12/20 04:28:32;;;;;;;9.03;5.23;;;;;;;;;;5052271;28;20401;-51
2020/12/20 04:30:58;;;;;;;6.23;5.60;;;;;;;;;;5052079;28;20438;-51
2020/12/20 04:33:24;;;;;;;6.43;5.50;;;;;;;;;;5052437;28;20464;-50
2020/12/20 04:35:50;;;;;;;7.83;5.90;;;;;;;;;;5052348;28;20818;-50
2020/12/20 04:38:16;;;;;;;6.00;5.40;;;;;;;;;;5048530;28;20448;-50
2020/12/20 04:40:42;;;;;;;8.20;5.83;;;;;;;;;;5051820;28;20459;-50
2020/12/20 04:43:11;;;;;;;6.67;5.93;;;;;;;;;;5051971;28;20397;-50
2020/12/20 04:45:38;;;;;;;6.47;5.87;;;;;;;;;;5052121;28;20410;-51
2020/12/20 04:48:04;;;;;;;6.17;5.33;;;;;;;;;;5051997;28;20397;-51
2020/12/20 04:50:30;;;;;;;10.00;6.20;;;;;;;;;;5051773;28;20950;-51
2020/12/20 04:52:57;;;;;;;9.70;6.20;;;;;;;;;;5051893;28;20457;-51
2020/12/20 04:55:24;;;;;;;7.43;5.77;;;;;;;;;;5051949;28;20409;-51
2020/12/20 04:57:53;;;;;;;8.50;5.93;;;;;;;;;;5051776;28;20929;-51
2020/12/20 05:00:20;;;;;;;6.60;5.90;;;;;;;;;;5051626;28;20405;-51
2020/12/20 05:02:46;;;;;;;6.90;6.20;;;;;;;;;;5051815;28;20793;-51
2020/12/20 05:05:12;;;;;;;8.10;5.57;;;;;;;;;;5051836;28;20401;-51
2020/12/20 05:07:38;;;;;;;7.07;6.10;;;;;;;;;;5048218;28;20461;-51
2020/12/20 05:10:05;;;;;;;9.13;6.30;;;;;;;;;;5051404;28;20924;-51
2020/12/20 05:12:32;;;;;;;6.33;5.60;;;;;;;;;;5051455;28;20474;-51
2020/12/20 05:14:59;;;;;;;11.67;6.10;;;;;;;;;;5051162;28;20409;-51
2020/12/20 05:17:25;;;;;;;11.27;6.90;;;;;;;;;;5051551;28;21105;-51
2020/12/20 05:19:51;;;;;;;6.63;5.97;;;;;;;;;;5051134;28;20405;-50
2020/12/20 05:22:21;;;;;;;6.13;5.57;;;;;;;;;;5051345;28;20417;-51
2020/12/20 05:24:48;;;;;;;8.30;5.80;;;;;;;;;;5051098;28;20409;-51
2020/12/20 05:27:28;;;;;;;7.27;5.83;;;;;;;;;;5051354;28;20455;-52
2020/12/20 05:29:54;;;;;;;8.53;6.23;;;;;;;;;;5050908;28;20907;-50
2020/12/20 05:32:30;;;;;;;6.90;5.93;;;;;;;;;;5051105;28;20481;-52
2020/12/20 05:35:04;;;;;;;7.40;6.70;;;;;;;;;;5051080;28;20820;-50
2020/12/20 05:37:31;;;;;;;12.00;6.80;;;;;;;;;;5049483;28;20390;-50
2020/12/20 05:39:57;;;;;;;7.40;6.37;;;;;;;;;;5048989;28;20480;-53
2020/12/20 05:42:24;;;;;;;8.90;7.40;;;;;;;;;;5051073;28;20499;-51
2020/12/20 05:45:10;;;;;;;8.10;7.00;;;;;;;;;;5050921;28;20428;-50
2020/12/20 05:47:37;;;;;;;8.57;6.70;;;;;;;;;;5050730;28;20421;-51
2020/12/20 05:50:03;;;;;;;6.93;6.23;;;;;;;;;;5050609;28;20398;-53
2020/12/20 05:52:29;;;;;;;8.60;7.00;;;;;;;;;;5050847;28;20418;-51
2020/12/20 05:54:55;;;;;;;6.80;6.10;;;;;;;;;;5050632;28;20513;-51
2020/12/20 05:57:22;;;;;;;9.37;6.03;;;;;;;;;;5050840;28;20599;-51
2020/12/20 05:59:49;;;;;;;9.40;6.50;;;;;;;;;;5050519;28;20429;-50
2020/12/20 06:02:16;;;;;;;8.57;6.77;;;;;;;;;;5050576;28;20765;-51
2020/12/20 06:04:42;;;;;;;7.30;6.30;;;;;;;;;;5050748;28;20413;-51
2020/12/20 06:07:09;;;;;;;7.83;7.03;;;;;;;;;;5048922;28;20488;-51
2020/12/20 06:09:39;;;;;;;9.70;6.77;;;;;;;;;;5050467;28;20409;-53
2020/12/20 06:12:11;;;;;;;7.90;6.90;;;;;;;;;;5050428;28;20908;-51
2020/12/20 06:14:42;;;;;;;7.27;6.57;;;;;;;;;;5050653;28;20964;-52
2020/12/20 06:17:13;;;;;;;8.43;7.53;;;;;;;;;;5050483;28;20414;-52
2020/12/20 06:19:47;;;;;;;7.27;6.50;;;;;;;;;;5050424;28;20453;-51
2020/12/20 06:22:18;;;;;;;9.50;7.60;;;;;;;;;;5050371;28;20428;-52
2020/12/20 06:24:46;;;;;;;7.87;7.00;;;;;;;;;;5050602;28;20397;-51
2020/12/20 06:27:13;;;;;;;10.60;6.83;;;;;;;;;;5053666;28;20550;-53
2020/12/20 06:29:41;;;;;;;12.17;8.00;;;;;;;;;;5054403;28;20393;-52
2020/12/20 06:32:08;;;;;;;8.10;7.10;;;;;;;;;;5054260;28;20448;-52
2020/12/20 06:34:39;;;;;;;11.10;7.40;;;;;;;;;;5054479;28;20457;-53
2020/12/20 06:37:05;;;;;;;8.27;7.47;;;;;;;;;;5052587;28;20401;-51
2020/12/20 06:39:40;;;;;;;9.77;7.70;;;;;;;;;;5052061;28;20412;-51
2020/12/20 06:42:07;;;;;;;9.37;8.47;;;;;;;;;;5054294;28;20417;-53
2020/12/20 06:44:33;;;;;;;8.73;8.00;;;;;;;;;;5054434;28;20482;-52
2020/12/20 06:47:00;;;;;;;9.50;7.73;;;;;;;;;;5054397;28;20893;-51
2020/12/20 06:49:35;;;;;;;11.83;7.70;;;;;;;;;;5054012;28;20927;-51
2020/12/20 06:52:19;;;;;;;9.53;8.27;;;;;;;;;;5054339;28;20422;-53
2020/12/20 06:55:04;;;;;;;9.20;7.97;;;;;;;;;;5054262;28;20448;-52
2020/12/20 06:57:30;;;;;;;13.37;8.77;;;;;;;;;;5054459;28;20888;-51
2020/12/20 06:59:56;;;;;;;10.10;7.87;;;;;;;;;;5054070;28;20401;-51
2020/12/20 07:02:40;;;;;;;8.27;7.47;;;;;;;;;;5054431;28;20417;-51
2020/12/20 07:05:06;;;;;;;12.50;8.80;;;;;;;;;;5053965;28;20401;-51
2020/12/20 07:07:32;;;;;;;9.43;8.27;;;;;;;;;;5052278;28;20433;-52
2020/12/20 07:09:58;;;;;;;8.80;7.90;;;;;;;;;;5053668;28;20405;-51
2020/12/20 07:12:44;;;;;;;9.23;7.53;;;;;;;;;;5053965;28;20429;-51
2020/12/20 07:15:30;;;;;;;8.57;7.60;;;;;;;;;;5053727;28;20413;-51
2020/12/20 07:17:56;;;;;;;9.43;8.37;;;;;;;;;;5053859;28;20539;-51
2020/12/20 07:20:34;;;;;;;9.10;8.20;;;;;;;;;;5053403;28;20435;-53
2020/12/20 07:23:00;;;;;;;9.97;8.47;;;;;;;;;;5053757;28;20477;-51
2020/12/20 07:25:27;;;;;;;12.43;8.83;;;;;;;;;;5053498;28;20893;-51
2020/12/20 07:27:53;;;;;;;8.83;7.83;;;;;;;;;;5053609;28;20398;-51
2020/12/20 07:30:19;;;;;;;11.57;8.37;;;;;;;;;;5053100;28;20397;-52
2020/12/20 07:32:45;;;;;;;10.90;8.80;;;;;;;;;;5053211;28;20443;-50
2020/12/20 07:35:14;;;;;;;11.40;9.47;;;;;;;;;;5053292;28;20835;-51
2020/12/20 07:37:52;;;;;;;14.17;8.73;;;;;;;;;;5049238;28;20428;-51
2020/12/20 07:40:19;;;;;;;13.20;8.93;;;;;;;;;;5052943;28;21154;-51
2020/12/20 07:42:45;;;;;;;11.43;8.90;;;;;;;;;;5053381;28;20433;-51
2020/12/20 07:45:14;;;;;;;10.27;9.03;;;;;;;;;;5053174;28;20897;-51
2020/12/20 07:47:49;;;;;;;10.90;9.00;;;;;;;;;;5053192;28;20413;-51
2020/12/20 07:50:21;;;;;;;9.83;8.83;;;;;;;;;;5052824;28;20393;-51
2020/12/20 07:52:48;;;;;;;11.17;8.97;;;;;;;;;;5052955;28;20545;-51
2020/12/20 07:55:14;;;;;;;10.73;8.23;;;;;;;;;;5053067;28;20967;-52
2020/12/20 07:57:40;;;;;;;11.03;9.00;;;;;;;;;;5052893;28;20401;-51
2020/12/20 08:00:07;;;;;;;10.37;9.30;;;;;;;;;;5052721;28;20968;-51
2020/12/20 08:02:33;;;;;;;11.70;9.53;;;;;;;;;;5052752;28;20413;-51
2020/12/20 08:05:09;;;;;;;14.20;9.07;;;;;;;;;;5052848;28;20440;-51
2020/12/20 08:07:35;;;;;;;10.47;8.67;;;;;;;;;;5051106;28;20425;-50
2020/12/20 08:10:02;;;;;;;12.30;9.27;;;;;;;;;;5052556;28;20413;-51
2020/12/20 08:12:28;;;;;;;10.10;8.73;;;;;;;;;;5052550;28;20418;-51
2020/12/20 08:15:04;;;;;;;10.27;8.80;;;;;;;;;;5051895;28;20456;-52
2020/12/20 08:17:30;;;;;;;10.60;8.87;;;;;;;;;;5052555;28;20417;-51
2020/12/20 08:19:56;;;;;;;11.97;9.30;;;;;;;;;;5052365;28;20950;-51
2020/12/20 08:22:23;;;;;;;11.27;8.23;;;;;;;;;;5052464;28;20469;-51
2020/12/20 08:24:50;;;;;;;13.23;8.77;;;;;;;;;;5052530;28;20412;-51
2020/12/20 08:27:23;;;;;;;10.80;9.30;;;;;;;;;;5052357;28;20402;-52
2020/12/20 08:29:51;;;;;;;11.40;9.13;;;;;;;;;;5052306;28;21125;-51
2020/12/20 08:32:18;;;;;;;10.43;9.00;;;;;;;;;;5052019;28;20937;-52
2020/12/20 08:34:44;;;;;;;16.00;9.07;;;;;;;;;;5052812;28;20453;-50
2020/12/20 08:37:14;;;;;;;13.60;8.30;;;;;;;;;;5048709;28;20944;-51
2020/12/20 08:39:40;;;;;;;11.00;8.90;;;;;;;;;;5051883;28;20411;-51
2020/12/20 08:42:07;;;;;;;12.00;9.53;;;;;;;;;;5052142;28;20409;-51
2020/12/20 08:44:33;;;;;;;13.40;9.00;;;;;;;;;;5052053;28;20409;-52
2020/12/20 08:47:19;;;;;;;9.83;8.50;;;;;;;;;;5052133;28;20528;-51
2020/12/20 08:49:55;;;;;;;12.03;8.90;;;;;;;;;;5051017;28;20413;-51
2020/12/20 08:52:21;;;;;;;10.20;8.23;;;;;;;;;;5052030;28;20430;-53
2020/12/20 08:54:48;;;;;;;11.50;9.10;;;;;;;;;;5051730;28;20449;-53
2020/12/20 08:57:14;;;;;;;16.27;9.53;;;;;;;;;;5051902;28;20402;-51
2020/12/20 08:59:41;;;;;;;11.43;9.40;;;;;;;;;;5051721;28;20411;-51
2020/12/20 09:02:08;;;;;;;10.30;8.60;;;;;;;;;;5052115;28;20434;-53
2020/12/20 09:04:36;;;;;;;12.50;8.63;;;;;;;;;;5051977;28;20411;-53
2020/12/20 09:07:03;;;;;;;9.40;8.00;;;;;;;;;;5048642;28;20455;-53
2020/12/20 09:09:30;;;;;;;11.13;8.40;;;;;;;;;;5051522;28;20411;-52
2020/12/20 09:12:09;;;;;;;10.43;8.50;;;;;;;;;;5051525;28;20421;-52
2020/12/20 09:14:35;;;;;;;8.33;7.63;;;;;;;;;;5051454;28;20451;-50
2020/12/20 09:17:01;;;;;;;15.30;10.40;;;;;;;;;;5051609;28;20943;-51
2020/12/20 09:19:27;;;;;;;11.50;8.17;;;;;;;;;;5051110;28;20436;-53
2020/12/20 09:21:53;;;;;;;8.97;8.00;;;;;;;;;;5051425;28;20429;-53
2020/12/20 09:24:19;;;;;;;9.83;7.83;;;;;;;;;;5051342;28;20403;-54
2020/12/20 09:26:55;;;;;;;11.57;9.60;;;;;;;;;;5051260;28;20570;-53
2020/12/20 09:29:21;;;;;;;9.40;7.30;;;;;;;;;;5051141;28;20964;-52
2020/12/20 09:31:48;;;;;;;10.20;7.40;;;;;;;;;;5050976;28;21124;-51
2020/12/20 09:34:14;;;;;;;9.33;6.90;;;;;;;;;;5051112;28;20970;-51
2020/12/20 09:36:41;;;;;;;8.80;6.73;;;;;;;;;;5050972;28;20402;-51
2020/12/20 09:39:07;;;;;;;7.60;5.83;;;;;;;;;;5045816;28;20925;-51
2020/12/20 09:41:33;;;;;;;6.87;5.90;;;;;;;;;;5050683;28;20421;-53
2020/12/20 09:43:59;;;;;;;9.20;6.10;;;;;;;;;;5051180;28;20412;-53
2020/12/20 09:46:27;;;;;;;8.60;6.33;;;;;;;;;;5051003;28;20452;-52
2020/12/20 09:48:53;;;;;;;8.57;5.80;;;;;;;;;;5050882;28;20464;-52
2020/12/20 09:51:20;;;;;;;7.17;5.77;;;;;;;;;;5050494;28;20510;-53
2020/12/20 09:53:47;;;;;;;9.73;7.03;;;;;;;;;;5050670;28;20448;-52
2020/12/20 09:56:13;;;;;;;8.53;6.63;;;;;;;;;;5050630;28;20433;-51
2020/12/20 09:58:39;;;;;;;8.63;7.13;;;;;;;;;;5050688;28;20492;-51
2020/12/20 10:01:05;;;;;;;9.50;6.77;;;;;;;;;;5049624;28;20797;-51
2020/12/20 10:03:31;;;;;;;8.93;6.03;;;;;;;;;;5050594;28;20413;-52
2020/12/20 10:05:58;;;;;;;6.60;5.43;;;;;;;;;;5050687;28;20406;-53
2020/12/20 10:08:25;;;;;;;7.77;5.67;;;;;;;;;;5047841;28;20436;-51
2020/12/20 10:10:53;;;;;;;7.77;5.70;;;;;;;;;;5050422;28;20433;-52
2020/12/20 10:13:19;;;;;;;6.97;5.40;;;;;;;;;;5050455;28;20443;-52
2020/12/20 10:15:45;;;;;;;6.87;5.90;;;;;;;;;;5050685;28;20405;-52
2020/12/20 10:18:12;;;;;;;6.20;5.60;;;;;;;;;;5050501;28;20467;-52
2020/12/20 10:20:38;;;;;;;7.77;5.23;;;;;;;;;;5050257;28;20379;-52
2020/12/20 10:23:04;;;;;;;9.30;5.50;;;;;;;;;;5048894;28;20429;-52
2020/12/20 10:25:30;;;;;;;6.03;4.57;;;;;;;;;;5050558;28;21101;-53
2020/12/20 10:27:57;;;;;;;6.53;5.73;;;;;;;;;;5050473;28;21049;-53
2020/12/20 10:30:23;;;;;;;7.03;4.80;;;;;;;;;;5050354;28;20417;-52
2020/12/20 10:32:49;;;;;;;6.57;5.17;;;;;;;;;;5050172;28;20423;-53
2020/12/20 10:35:16;;;;;;;5.87;5.20;;;;;;;;;;5050311;28;20384;-52
2020/12/20 10:37:42;;;;;;;6.57;4.77;;;;;;;;;;5050516;28;20442;-52
2020/12/20 10:40:08;;;;;;;6.30;5.00;;;;;;;;;;5050162;28;20480;-52
2020/12/20 10:42:34;;;;;;;9.37;5.63;;;;;;;;;;5050394;28;20425;-52
2020/12/20 10:45:00;;;;;;;6.40;5.53;;;;;;;;;;5048137;28;20412;-51
2020/12/20 10:47:26;;;;;;;6.00;5.37;;;;;;;;;;5050575;28;20531;-51
2020/12/20 10:49:52;;;;;;;7.37;6.13;;;;;;;;;;5050281;28;20543;-51
2020/12/20 10:52:18;;;;;;;9.40;5.37;;;;;;;;;;5050456;28;20425;-51
2020/12/20 10:54:44;;;;;;;8.97;5.73;;;;;;;;;;5032791;28;20453;-51
2020/12/20 10:57:10;;;;;;;7.43;5.53;;;;;;;;;;5032884;28;20413;-52
2020/12/20 10:59:36;;;;;;;9.93;6.83;;;;;;;;;;5032557;28;21077;-51
2020/12/20 11:02:03;;;;;;;5.60;5.10;;;;;;;;;;5030457;28;20499;-51
2020/12/20 11:04:29;;;;;;;7.67;6.10;;;;;;;;;;5031286;28;20801;-49
2020/12/20 11:06:56;;;;;;;8.33;4.90;;;;;;;;;;5030827;28;20528;-50
2020/12/20 11:09:22;;;;;;;8.50;6.17;;;;;;;;;;5035302;28;20484;-51
2020/12/20 11:11:48;;;;;;;5.83;5.00;;;;;;;;;;5050711;28;20428;-51
2020/12/20 11:14:14;;;;;;;7.07;5.83;;;;;;;;;;5054787;28;20453;-53
2020/12/20 11:16:40;;;;;;;8.90;5.27;;;;;;;;;;5056894;28;20420;-51
2020/12/20 11:19:07;;;;;;;5.93;5.20;;;;;;;;;;5054574;28;20405;-53
2020/12/20 11:21:33;;;;;;;7.67;5.30;;;;;;;;;;5053977;28;20426;-50
2020/12/20 11:23:59;;;;;;;8.20;5.17;;;;;;;;;;5051968;28;20492;-50
2020/12/20 11:26:25;;;;;;;6.60;5.80;;;;;;;;;;5051786;28;20464;-51
2020/12/20 11:28:52;;;;;;;6.33;5.27;;;;;;;;;;5053023;28;20848;-51
2020/12/20 11:31:19;;;;;;;8.33;4.60;;;;;;;;;;5053165;28;20533;-52
2020/12/20 11:33:46;;;;;;;8.53;5.07;;;;;;;;;;5053224;28;20461;-52
2020/12/20 11:36:20;;;;;;;6.30;4.20;;;;;;;;;;5053615;28;20404;-49
2020/12/20 11:38:46;;;;;;;14.23;5.37;;;;;;;;;;5053184;28;20407;-50
2020/12/20 11:41:12;;;;;;;7.00;5.00;;;;;;;;;;5048397;28;20504;-50
2020/12/20 11:43:38;;;;;;;5.23;4.73;;;;;;;;;;5053195;28;20409;-52
2020/12/20 11:46:04;;;;;;;9.00;4.60;;;;;;;;;;5053070;28;20418;-52
2020/12/20 11:48:31;;;;;;;6.77;4.67;;;;;;;;;;5051781;28;20521;-53
2020/12/20 11:50:57;;;;;;;12.07;4.33;;;;;;;;;;5052954;28;20457;-52
2020/12/20 11:53:24;;;;;;;8.37;4.40;;;;;;;;;;5052993;28;20445;-50
2020/12/20 11:55:50;;;;;;;14.33;5.33;;;;;;;;;;5053126;28;20443;-49
2020/12/20 11:58:16;;;;;;;8.20;4.50;;;;;;;;;;5052959;28;20929;-50
2020/12/20 12:00:46;;;;;;;9.17;4.47;;;;;;;;;;5052559;28;20404;-50
2020/12/20 12:03:13;;;;;;;5.77;4.10;;;;;;;;;;5052527;28;20498;-55
2020/12/20 12:05:39;;;;;;;11.80;4.67;;;;;;;;;;5032172;28;20410;-52
2020/12/20 12:08:08;;;;;;;7.70;4.10;;;;;;;;;;5040432;28;20476;-51
2020/12/20 12:10:35;;;;;;;7.03;4.30;;;;;;;;;;5052335;28;20404;-49
2020/12/20 12:13:01;;;;;;;6.20;4.00;;;;;;;;;;5052618;28;20404;-50
2020/12/20 12:15:28;;;;;;;8.23;5.00;;;;;;;;;;5052527;28;20989;-50
2020/12/20 12:17:55;;;;;;;7.60;4.80;;;;;;;;;;5052813;28;20402;-50
2020/12/20 12:20:21;;;;;;;7.30;4.10;;;;;;;;;;5052279;28;20410;-52
2020/12/20 12:22:47;;;;;;;5.70;4.30;;;;;;;;;;5052104;28;21120;-52
2020/12/20 12:25:14;;;;;;;6.07;4.63;;;;;;;;;;5051785;28;20410;-53
2020/12/20 12:27:40;;;;;;;5.73;4.10;;;;;;;;;;5052535;28;20431;-50
2020/12/20 12:30:06;;;;;;;6.23;3.80;;;;;;;;;;5052076;28;20416;-49
2020/12/20 12:32:32;;;;;;;3.83;3.53;;;;;;;;;;5052411;28;20452;-50
2020/12/20 12:34:58;;;;;;;7.50;3.73;;;;;;;;;;5052380;28;20518;-50
2020/12/20 12:37:24;;;;;;;9.87;4.07;;;;;;;;;;5047741;28;20427;-50
2020/12/20 12:39:51;;;;;;;6.47;3.80;;;;;;;;;;5052246;28;20764;-49
2020/12/20 12:42:17;;;;;;;13.70;4.40;;;;;;;;;;5052161;28;20422;-50
2020/12/20 12:44:43;;;;;;;6.60;3.57;;;;;;;;;;5052202;28;20461;-49
2020/12/20 12:47:09;;;;;;;6.93;3.63;;;;;;;;;;5052030;28;20400;-50
2020/12/20 12:49:36;;;;;;;7.27;3.60;;;;;;;;;;5051915;28;20413;-49
2020/12/20 12:52:02;;;;;;;8.80;4.20;;;;;;;;;;5051826;28;20435;-50
2020/12/20 12:54:28;;;;;;;7.17;3.70;;;;;;;;;;5051977;28;20811;-49
2020/12/20 12:56:54;;;;;;;7.40;3.93;;;;;;;;;;5051670;28;20401;-49
2020/12/20 12:59:20;;;;;;;7.40;4.00;;;;;;;;;;5051529;28;20396;-53
2020/12/20 13:01:46;;;;;;;11.07;4.50;;;;;;;;;;5051792;28;20516;-51
2020/12/20 13:04:12;;;;;;;3.50;3.20;;;;;;;;;;5051668;28;20397;-53
2020/12/20 13:06:38;;;;;;;5.03;3.43;;;;;;;;;;5051767;28;20775;-52
2020/12/20 13:09:05;;;;;;;3.30;3.00;;;;;;;;;;5048957;28;20428;-51
2020/12/20 13:11:31;;;;;;;5.50;3.90;;;;;;;;;;5051372;28;20831;-52
2020/12/20 13:13:57;;;;;;;8.13;3.70;;;;;;;;;;5051541;28;20487;-51
2020/12/20 13:16:23;;;;;;;9.17;3.80;;;;;;;;;;5051604;28;20431;-52
2020/12/20 13:18:49;;;;;;;9.90;4.30;;;;;;;;;;5051253;28;20399;-52
2020/12/20 13:21:19;;;;;;;9.73;3.70;;;;;;;;;;5051199;28;20420;-51
2020/12/20 13:23:45;;;;;;;7.67;4.63;;;;;;;;;;5051196;28;20467;-51
2020/12/20 13:26:11;;;;;;;4.77;3.37;;;;;;;;;;5051267;28;20495;-50
2020/12/20 13:28:37;;;;;;;8.57;3.73;;;;;;;;;;5051193;28;20410;-49
2020/12/20 13:31:03;;;;;;;5.10;3.57;;;;;;;;;;5050724;28;20451;-50
2020/12/20 13:33:29;;;;;;;5.60;3.30;;;;;;;;;;5051190;28;20455;-50
2020/12/20 13:35:55;;;;;;;4.37;3.97;;;;;;;;;;5050666;28;20774;-50
2020/12/20 13:38:22;;;;;;;6.30;3.60;;;;;;;;;;5049593;28;20454;-49
2020/12/20 13:40:49;;;;;;;5.27;2.93;;;;;;;;;;5050573;28;20439;-49
2020/12/20 13:43:15;;;;;;;7.13;3.90;;;;;;;;;;5051028;28;20404;-49
2020/12/20 13:45:41;;;;;;;7.13;3.20;;;;;;;;;;5050935;28;20815;-50
2020/12/20 13:48:07;;;;;;;6.23;3.00;;;;;;;;;;5050993;28;20408;-52
2020/12/20 13:50:33;;;;;;;9.77;4.00;;;;;;;;;;5050434;28;20412;-52
2020/12/20 13:52:59;;;;;;;5.43;3.30;;;;;;;;;;5050834;28;20412;-50
2020/12/20 13:55:26;;;;;;;4.80;3.33;;;;;;;;;;5050840;28;20494;-50
2020/12/20 13:57:52;;;;;;;5.93;3.70;;;;;;;;;;5050642;28;20816;-49
2020/12/20 14:00:18;;;;;;;8.03;3.70;;;;;;;;;;5050530;28;20404;-50
2020/12/20 14:02:44;;;;;;;8.20;3.70;;;;;;;;;;5050655;28;20787;-50
2020/12/20 14:05:10;;;;;;;6.23;3.50;;;;;;;;;;5050795;28;20408;-50
2020/12/20 14:07:36;;;;;;;7.60;3.33;;;;;;;;;;5047952;28;20515;-50
2020/12/20 14:10:02;;;;;;;5.50;3.40;;;;;;;;;;5050497;28;20409;-51
2020/12/20 14:12:28;;;;;;;7.00;3.50;;;;;;;;;;5050501;28;20456;-52
2020/12/20 14:14:54;;;;;;;6.67;3.43;;;;;;;;;;5050667;28;20463;-53
2020/12/20 14:17:20;;;;;;;8.33;3.50;;;;;;;;;;5050620;28;20885;-54
2020/12/20 14:19:46;;;;;;;7.30;3.10;;;;;;;;;;5050416;28;20800;-51
2020/12/20 14:22:12;;;;;;;6.10;4.30;;;;;;;;;;5050388;28;20426;-52
2020/12/20 14:24:39;;;;;;;11.90;5.07;;;;;;;;;;5050700;28;20416;-50
2020/12/20 14:27:05;;;;;;;14.27;4.67;;;;;;;;;;5050586;28;20906;-49
2020/12/20 14:29:31;;;;;;;12.13;4.13;;;;;;;;;;5050252;28;20779;-50
2020/12/20 14:31:58;;;;;;;19.13;5.70;;;;;;;;;;5050376;28;20444;-49
2020/12/20 14:34:25;;;;;;;8.63;4.57;;;;;;;;;;5050973;28;20986;-50
2020/12/20 14:36:51;;;;;;;7.90;3.93;;;;;;;;;;5048934;28;20511;-50
2020/12/20 14:39:17;;;;;;;8.47;4.77;;;;;;;;;;5050058;28;20895;-51